Terminal Aerodrome Forecast
Issued by NWS Amarillo, TX

Home | Current Version | Previous Version | Text Only | Print | Product List | Glossary On
Versions: 1 2 3 4 5 6 7 8 9 10 11 12 13 14 15 16
000
FTUS44 KAMA 070100 AAA
TAFAMA
TAF AMD
KAMA 070101Z 0701/0724 02018G28KT P6SM SCT030 BKN110
      TEMPO 0701/0704 2SM TSRA BKN025CB
     FM070500 02013KT 4SM -TSRA OVC025CB
      TEMPO 0705/0709 1SM TSRA BR OVC015CB
     FM070900 02014KT 5SM -SHRA BR OVC010
     FM071600 04013KT P6SM OVC040 PROB30 0716/0722 4SM -TSRA
      OVC020CB=

USA.gov is the U.S. government's official web portal to all federal, state and local government web resources and services.